UHHH/KHV METAR and TAF weather

Enter ICAO airport designator
Station Type Date Time Source
UHHH METAR 2021/01/27 13:30 UTC NOAA

UHHH 271330Z 29002MPS 9000 FEW016 M21/M26 Q1016 R23L/850350 NOSIG RMK QFE756/1008


Station Type Date Time Source
UHHH Decoded METAR 2021/01/27 13:30 UTC NOAA

Habarovsk, Russia (UHHH) 48-31N 135-10E 76M
Jan 27, 2021 - 08:30 AM EST / 2021.01.27 1330 UTC
Wind: from the WNW (290 degrees) at 4 MPH (4 KT):0
Visibility: 5 mile(s):0
Sky conditions: mostly clear
Temperature: -5 F (-21 C)
Dew Point: -14 F (-26 C)
Relative Humidity: 64%
Pressure (altimeter): 30.00 in. Hg (1016 hPa)
ob: UHHH 271330Z 29002MPS 9000 FEW016 M21/M26 Q1016 R23L/850350 NOSIG RMK QFE756/1008
cycle: 13

Station Type Date Time Source
UHHH TAF 2021/01/27 12:24 UTC NOAA

TAF UHHH 271045Z 2712/2818 24003MPS 9999 NSC
TEMPO 2712/2721 25007MPS SCT011

Example: see airport list